sensor_id;sensor_type;location;lat;lon;timestamp;temperature;humidity
12115;DHT22;6121;49.810;6.418;2022-12-29T00:01:25;10.80;99.90
12115;DHT22;6121;49.810;6.418;2022-12-29T00:03:50;10.80;99.90
12115;DHT22;6121;49.810;6.418;2022-12-29T00:06:16;10.80;99.90
12115;DHT22;6121;49.810;6.418;2022-12-29T00:08:42;10.80;99.90
12115;DHT22;6121;49.810;6.418;2022-12-29T00:11:15;10.80;99.90
12115;DHT22;6121;49.810;6.418;2022-12-29T00:13:42;10.90;99.90
12115;DHT22;6121;49.810;6.418;2022-12-29T00:16:27;10.90;99.90
12115;DHT22;6121;49.810;6.418;2022-12-29T00:18:52;10.90;99.90
12115;DHT22;6121;49.810;6.418;2022-12-29T00:21:21;10.90;99.90
12115;DHT22;6121;49.810;6.418;2022-12-29T00:24:05;10.80;99.90
12115;DHT22;6121;49.810;6.418;2022-12-29T00:26:58;10.80;99.90
12115;DHT22;6121;49.810;6.418;2022-12-29T00:29:49;10.80;99.90
12115;DHT22;6121;49.810;6.418;2022-12-29T00:32:33;10.80;99.90
12115;DHT22;6121;49.810;6.418;2022-12-29T00:35:39;10.70;99.90
12115;DHT22;6121;49.810;6.418;2022-12-29T00:38:07;10.90;99.90
12115;DHT22;6121;49.810;6.418;2022-12-29T00:40:52;10.90;99.90
12115;DHT22;6121;49.810;6.418;2022-12-29T00:43:36;10.90;99.90
12115;DHT22;6121;49.810;6.418;2022-12-29T00:46:21;11.00;99.90
12115;DHT22;6121;49.810;6.418;2022-12-29T00:48:46;11.00;99.90
12115;DHT22;6121;49.810;6.418;2022-12-29T00:51:30;11.00;99.90
12115;DHT22;6121;49.810;6.418;2022-12-29T00:53:56;11.10;99.90
12115;DHT22;6121;49.810;6.418;2022-12-29T00:56:21;11.10;99.90
12115;DHT22;6121;49.810;6.418;2022-12-29T00:58:47;11.00;99.90
12115;DHT22;6121;49.810;6.418;2022-12-29T01:01:13;11.10;99.90
12115;DHT22;6121;49.810;6.418;2022-12-29T01:03:38;11.10;99.90
12115;DHT22;6121;49.810;6.418;2022-12-29T01:06:09;11.10;99.90
12115;DHT22;6121;49.810;6.418;2022-12-29T01:08:35;11.10;99.90
12115;DHT22;6121;49.810;6.418;2022-12-29T01:11:03;11.20;99.90
12115;DHT22;6121;49.810;6.418;2022-12-29T01:13:29;11.00;99.90
12115;DHT22;6121;49.810;6.418;2022-12-29T01:15:55;11.00;99.90
12115;DHT22;6121;49.810;6.418;2022-12-29T01:18:22;11.00;99.90
12115;DHT22;6121;49.810;6.418;2022-12-29T01:20:48;10.90;99.90
12115;DHT22;6121;49.810;6.418;2022-12-29T01:23:14;10.90;99.90
12115;DHT22;6121;49.810;6.418;2022-12-29T01:25:39;10.80;99.90
12115;DHT22;6121;49.810;6.418;2022-12-29T01:28:05;10.90;99.90
12115;DHT22;6121;49.810;6.418;2022-12-29T01:30:34;11.00;99.90
12115;DHT22;6121;49.810;6.418;2022-12-29T01:32:59;11.00;99.90
12115;DHT22;6121;49.810;6.418;2022-12-29T01:35:25;10.90;99.90
12115;DHT22;6121;49.810;6.418;2022-12-29T01:37:51;10.80;99.90
12115;DHT22;6121;49.810;6.418;2022-12-29T01:40:16;10.80;99.90
12115;DHT22;6121;49.810;6.418;2022-12-29T01:42:42;10.80;99.90
12115;DHT22;6121;49.810;6.418;2022-12-29T01:45:09;10.80;99.90
12115;DHT22;6121;49.810;6.418;2022-12-29T01:47:41;10.80;99.90
12115;DHT22;6121;49.810;6.418;2022-12-29T01:52:43;10.70;99.90
12115;DHT22;6121;49.810;6.418;2022-12-29T01:55:13;10.80;99.90
12115;DHT22;6121;49.810;6.418;2022-12-29T01:57:41;10.80;99.90
12115;DHT22;6121;49.810;6.418;2022-12-29T02:00:11;10.70;99.90
12115;DHT22;6121;49.810;6.418;2022-12-29T02:02:37;10.70;99.90
12115;DHT22;6121;49.810;6.418;2022-12-29T02:05:10;10.80;99.90
12115;DHT22;6121;49.810;6.418;2022-12-29T02:07:37;10.70;99.90
12115;DHT22;6121;49.810;6.418;2022-12-29T02:10:04;10.70;99.90
12115;DHT22;6121;49.810;6.418;2022-12-29T02:12:30;10.70;99.90
12115;DHT22;6121;49.810;6.418;2022-12-29T02:14:58;10.70;99.90
12115;DHT22;6121;49.810;6.418;2022-12-29T02:23:01;10.80;99.90
12115;DHT22;6121;49.810;6.418;2022-12-29T02:26:13;10.70;99.90
12115;DHT22;6121;49.810;6.418;2022-12-29T02:31:56;10.70;99.90
12115;DHT22;6121;49.810;6.418;2022-12-29T02:37:40;10.70;99.90
12115;DHT22;6121;49.810;6.418;2022-12-29T02:40:31;10.80;99.90
12115;DHT22;6121;49.810;6.418;2022-12-29T02:46:05;10.90;99.90
12115;DHT22;6121;49.810;6.418;2022-12-29T02:48:42;10.80;99.90
12115;DHT22;6121;49.810;6.418;2022-12-29T02:51:34;10.80;99.90
12115;DHT22;6121;49.810;6.418;2022-12-29T02:54:01;10.80;99.90
12115;DHT22;6121;49.810;6.418;2022-12-29T02:56:45;10.80;99.90
12115;DHT22;6121;49.810;6.418;2022-12-29T02:59:12;10.80;99.90
12115;DHT22;6121;49.810;6.418;2022-12-29T03:04:50;10.70;99.90
12115;DHT22;6121;49.810;6.418;2022-12-29T03:13:35;10.80;99.90
12115;DHT22;6121;49.810;6.418;2022-12-29T03:16:45;10.80;99.90
12115;DHT22;6121;49.810;6.418;2022-12-29T03:19:20;10.90;99.90
12115;DHT22;6121;49.810;6.418;2022-12-29T03:22:08;10.80;99.90
12115;DHT22;6121;49.810;6.418;2022-12-29T03:25:00;10.80;99.90
12115;DHT22;6121;49.810;6.418;2022-12-29T03:27:35;10.80;99.90
12115;DHT22;6121;49.810;6.418;2022-12-29T03:30:05;10.80;99.90
12115;DHT22;6121;49.810;6.418;2022-12-29T03:32:35;10.80;99.90
12115;DHT22;6121;49.810;6.418;2022-12-29T03:35:03;10.80;99.90
12115;DHT22;6121;49.810;6.418;2022-12-29T03:37:34;10.80;99.90
12115;DHT22;6121;49.810;6.418;2022-12-29T03:40:01;10.90;99.90
12115;DHT22;6121;49.810;6.418;2022-12-29T03:42:30;10.90;99.90
12115;DHT22;6121;49.810;6.418;2022-12-29T03:44:56;11.00;99.90
12115;DHT22;6121;49.810;6.418;2022-12-29T03:47:23;10.90;99.90
12115;DHT22;6121;49.810;6.418;2022-12-29T03:49:50;11.00;99.90
12115;DHT22;6121;49.810;6.418;2022-12-29T03:52:16;11.10;99.90
12115;DHT22;6121;49.810;6.418;2022-12-29T03:54:41;11.10;99.90
12115;DHT22;6121;49.810;6.418;2022-12-29T03:57:08;11.10;99.90
12115;DHT22;6121;49.810;6.418;2022-12-29T03:59:34;11.10;99.90
12115;DHT22;6121;49.810;6.418;2022-12-29T04:02:00;10.90;99.90
12115;DHT22;6121;49.810;6.418;2022-12-29T04:04:25;10.80;99.90
12115;DHT22;6121;49.810;6.418;2022-12-29T04:06:51;10.70;99.90
12115;DHT22;6121;49.810;6.418;2022-12-29T04:09:16;10.60;99.90
12115;DHT22;6121;49.810;6.418;2022-12-29T04:11:42;10.80;99.90
12115;DHT22;6121;49.810;6.418;2022-12-29T04:14:08;10.80;99.90
12115;DHT22;6121;49.810;6.418;2022-12-29T04:16:33;10.80;99.90
12115;DHT22;6121;49.810;6.418;2022-12-29T04:19:01;10.90;99.90
12115;DHT22;6121;49.810;6.418;2022-12-29T04:21:27;11.00;99.90
12115;DHT22;6121;49.810;6.418;2022-12-29T04:23:53;10.90;99.90
12115;DHT22;6121;49.810;6.418;2022-12-29T04:26:18;10.90;99.90
12115;DHT22;6121;49.810;6.418;2022-12-29T04:28:44;10.90;99.90
12115;DHT22;6121;49.810;6.418;2022-12-29T04:31:10;11.00;99.90
12115;DHT22;6121;49.810;6.418;2022-12-29T04:33:35;10.90;99.90
12115;DHT22;6121;49.810;6.418;2022-12-29T04:36:01;11.00;99.90
12115;DHT22;6121;49.810;6.418;2022-12-29T04:38:27;11.10;99.90
12115;DHT22;6121;49.810;6.418;2022-12-29T04:40:52;11.10;99.90
12115;DHT22;6121;49.810;6.418;2022-12-29T04:43:18;11.10;99.90
12115;DHT22;6121;49.810;6.418;2022-12-29T04:45:48;11.00;99.90
12115;DHT22;6121;49.810;6.418;2022-12-29T04:48:14;11.10;99.90
12115;DHT22;6121;49.810;6.418;2022-12-29T04:50:40;11.10;99.90
12115;DHT22;6121;49.810;6.418;2022-12-29T04:53:07;11.00;99.90
12115;DHT22;6121;49.810;6.418;2022-12-29T04:55:33;11.10;99.90
12115;DHT22;6121;49.810;6.418;2022-12-29T04:57:58;11.10;99.90
12115;DHT22;6121;49.810;6.418;2022-12-29T05:00:24;11.00;99.90
12115;DHT22;6121;49.810;6.418;2022-12-29T05:02:50;11.00;99.90
12115;DHT22;6121;49.810;6.418;2022-12-29T05:05:17;11.10;99.90
12115;DHT22;6121;49.810;6.418;2022-12-29T05:07:43;11.00;99.90
12115;DHT22;6121;49.810;6.418;2022-12-29T05:10:08;11.00;99.90
12115;DHT22;6121;49.810;6.418;2022-12-29T05:12:35;11.10;99.90
12115;DHT22;6121;49.810;6.418;2022-12-29T05:15:01;11.00;99.90
12115;DHT22;6121;49.810;6.418;2022-12-29T05:17:28;11.10;99.90
12115;DHT22;6121;49.810;6.418;2022-12-29T05:19:54;11.10;99.90
12115;DHT22;6121;49.810;6.418;2022-12-29T05:22:20;11.10;99.90
12115;DHT22;6121;49.810;6.418;2022-12-29T05:24:46;11.00;99.90
12115;DHT22;6121;49.810;6.418;2022-12-29T05:27:11;11.00;99.90
12115;DHT22;6121;49.810;6.418;2022-12-29T05:29:37;10.90;99.90
12115;DHT22;6121;49.810;6.418;2022-12-29T05:32:02;10.80;99.90
12115;DHT22;6121;49.810;6.418;2022-12-29T05:34:28;10.90;99.90
12115;DHT22;6121;49.810;6.418;2022-12-29T05:36:54;10.90;99.90
12115;DHT22;6121;49.810;6.418;2022-12-29T05:39:19;10.80;99.90
12115;DHT22;6121;49.810;6.418;2022-12-29T05:41:45;10.80;99.90
12115;DHT22;6121;49.810;6.418;2022-12-29T05:44:11;10.80;99.90
12115;DHT22;6121;49.810;6.418;2022-12-29T05:46:37;11.00;99.90
12115;DHT22;6121;49.810;6.418;2022-12-29T05:49:02;10.90;99.90
12115;DHT22;6121;49.810;6.418;2022-12-29T05:51:28;10.70;99.90
12115;DHT22;6121;49.810;6.418;2022-12-29T05:53:54;10.70;99.90
12115;DHT22;6121;49.810;6.418;2022-12-29T05:56:19;10.70;99.90
12115;DHT22;6121;49.810;6.418;2022-12-29T05:58:45;10.70;99.90
12115;DHT22;6121;49.810;6.418;2022-12-29T06:01:11;10.70;99.90
12115;DHT22;6121;49.810;6.418;2022-12-29T06:03:36;10.70;99.90
12115;DHT22;6121;49.810;6.418;2022-12-29T06:06:02;10.70;99.90
12115;DHT22;6121;49.810;6.418;2022-12-29T06:08:28;10.70;99.90
12115;DHT22;6121;49.810;6.418;2022-12-29T06:10:53;10.80;99.90
12115;DHT22;6121;49.810;6.418;2022-12-29T06:13:19;10.80;99.90
12115;DHT22;6121;49.810;6.418;2022-12-29T06:15:44;10.90;99.90
12115;DHT22;6121;49.810;6.418;2022-12-29T06:18:10;10.90;99.90
12115;DHT22;6121;49.810;6.418;2022-12-29T06:20:36;10.80;99.90
12115;DHT22;6121;49.810;6.418;2022-12-29T06:23:01;10.80;99.90
12115;DHT22;6121;49.810;6.418;2022-12-29T06:25:27;10.90;99.90
12115;DHT22;6121;49.810;6.418;2022-12-29T06:27:53;10.90;99.90
12115;DHT22;6121;49.810;6.418;2022-12-29T06:30:19;10.80;99.90
12115;DHT22;6121;49.810;6.418;2022-12-29T06:32:44;10.80;99.90
12115;DHT22;6121;49.810;6.418;2022-12-29T06:35:11;10.80;99.90
12115;DHT22;6121;49.810;6.418;2022-12-29T06:37:38;10.90;99.90
12115;DHT22;6121;49.810;6.418;2022-12-29T06:40:05;10.90;99.90
12115;DHT22;6121;49.810;6.418;2022-12-29T06:42:30;10.90;99.90
12115;DHT22;6121;49.810;6.418;2022-12-29T06:44:56;10.80;99.90
12115;DHT22;6121;49.810;6.418;2022-12-29T06:47:24;10.80;99.90
12115;DHT22;6121;49.810;6.418;2022-12-29T06:49:50;10.80;99.90
12115;DHT22;6121;49.810;6.418;2022-12-29T06:52:15;10.80;99.90
12115;DHT22;6121;49.810;6.418;2022-12-29T06:54:41;10.90;99.90
12115;DHT22;6121;49.810;6.418;2022-12-29T06:57:07;10.90;99.90
12115;DHT22;6121;49.810;6.418;2022-12-29T06:59:32;11.00;99.90
12115;DHT22;6121;49.810;6.418;2022-12-29T07:01:58;11.00;99.90
12115;DHT22;6121;49.810;6.418;2022-12-29T07:04:24;11.10;99.90
12115;DHT22;6121;49.810;6.418;2022-12-29T07:06:49;11.00;99.90
12115;DHT22;6121;49.810;6.418;2022-12-29T07:09:15;11.20;99.90
12115;DHT22;6121;49.810;6.418;2022-12-29T07:11:40;11.20;99.90
12115;DHT22;6121;49.810;6.418;2022-12-29T07:14:06;11.10;99.90
12115;DHT22;6121;49.810;6.418;2022-12-29T07:16:32;11.10;99.90
12115;DHT22;6121;49.810;6.418;2022-12-29T07:18:59;11.20;99.90
12115;DHT22;6121;49.810;6.418;2022-12-29T07:21:25;11.20;99.90
12115;DHT22;6121;49.810;6.418;2022-12-29T07:23:51;11.20;99.90
12115;DHT22;6121;49.810;6.418;2022-12-29T07:26:16;11.10;99.90
12115;DHT22;6121;49.810;6.418;2022-12-29T07:28:43;11.10;99.90
12115;DHT22;6121;49.810;6.418;2022-12-29T07:31:20;11.20;99.90
12115;DHT22;6121;49.810;6.418;2022-12-29T07:33:46;11.20;99.90
12115;DHT22;6121;49.810;6.418;2022-12-29T07:36:13;11.20;99.90
12115;DHT22;6121;49.810;6.418;2022-12-29T07:38:40;11.20;99.90
12115;DHT22;6121;49.810;6.418;2022-12-29T07:41:06;11.30;99.90
12115;DHT22;6121;49.810;6.418;2022-12-29T07:43:32;11.30;99.90
12115;DHT22;6121;49.810;6.418;2022-12-29T07:45:57;11.30;99.90
12115;DHT22;6121;49.810;6.418;2022-12-29T07:48:23;11.20;99.90
12115;DHT22;6121;49.810;6.418;2022-12-29T07:50:49;11.20;99.90
12115;DHT22;6121;49.810;6.418;2022-12-29T07:53:15;11.20;99.90
12115;DHT22;6121;49.810;6.418;2022-12-29T07:55:40;11.10;99.90
12115;DHT22;6121;49.810;6.418;2022-12-29T07:58:06;11.10;99.90
12115;DHT22;6121;49.810;6.418;2022-12-29T08:00:32;11.10;99.90
12115;DHT22;6121;49.810;6.418;2022-12-29T08:02:57;11.20;99.90
12115;DHT22;6121;49.810;6.418;2022-12-29T08:05:23;11.30;99.90
12115;DHT22;6121;49.810;6.418;2022-12-29T08:07:48;11.20;99.90
12115;DHT22;6121;49.810;6.418;2022-12-29T08:10:15;11.20;99.90
12115;DHT22;6121;49.810;6.418;2022-12-29T08:12:41;11.30;99.90
12115;DHT22;6121;49.810;6.418;2022-12-29T08:15:08;11.20;99.90
12115;DHT22;6121;49.810;6.418;2022-12-29T08:17:34;11.20;99.90
12115;DHT22;6121;49.810;6.418;2022-12-29T08:19:59;11.20;99.90
12115;DHT22;6121;49.810;6.418;2022-12-29T08:22:25;11.20;99.90
12115;DHT22;6121;49.810;6.418;2022-12-29T08:24:51;11.30;99.90
12115;DHT22;6121;49.810;6.418;2022-12-29T08:27:17;11.20;99.90
12115;DHT22;6121;49.810;6.418;2022-12-29T08:29:43;11.30;99.90
12115;DHT22;6121;49.810;6.418;2022-12-29T08:32:08;11.20;99.90
12115;DHT22;6121;49.810;6.418;2022-12-29T08:34:34;11.20;99.90
12115;DHT22;6121;49.810;6.418;2022-12-29T08:36:59;11.20;99.90
12115;DHT22;6121;49.810;6.418;2022-12-29T08:39:25;11.30;99.90
12115;DHT22;6121;49.810;6.418;2022-12-29T08:41:50;11.30;99.90
12115;DHT22;6121;49.810;6.418;2022-12-29T08:44:16;11.20;99.90
12115;DHT22;6121;49.810;6.418;2022-12-29T08:46:42;11.20;99.90
12115;DHT22;6121;49.810;6.418;2022-12-29T08:49:07;11.20;99.90
12115;DHT22;6121;49.810;6.418;2022-12-29T08:51:33;11.30;99.90
12115;DHT22;6121;49.810;6.418;2022-12-29T08:53:59;11.40;99.90
12115;DHT22;6121;49.810;6.418;2022-12-29T08:56:25;11.30;99.90
12115;DHT22;6121;49.810;6.418;2022-12-29T08:58:51;11.30;99.90
12115;DHT22;6121;49.810;6.418;2022-12-29T09:01:17;11.40;99.90
12115;DHT22;6121;49.810;6.418;2022-12-29T09:03:43;11.50;99.90
12115;DHT22;6121;49.810;6.418;2022-12-29T09:06:08;11.50;99.90
12115;DHT22;6121;49.810;6.418;2022-12-29T09:08:34;11.60;99.90
12115;DHT22;6121;49.810;6.418;2022-12-29T09:11:13;11.50;99.90
12115;DHT22;6121;49.810;6.418;2022-12-29T09:13:39;11.40;99.90
12115;DHT22;6121;49.810;6.418;2022-12-29T09:16:04;11.30;99.90
12115;DHT22;6121;49.810;6.418;2022-12-29T09:18:31;11.40;99.90
12115;DHT22;6121;49.810;6.418;2022-12-29T09:21:02;11.50;99.90
12115;DHT22;6121;49.810;6.418;2022-12-29T09:23:28;11.40;99.90
12115;DHT22;6121;49.810;6.418;2022-12-29T09:25:54;11.30;99.90
12115;DHT22;6121;49.810;6.418;2022-12-29T09:28:21;11.40;99.90
12115;DHT22;6121;49.810;6.418;2022-12-29T09:30:47;11.50;99.90
12115;DHT22;6121;49.810;6.418;2022-12-29T09:33:13;11.50;99.90
12115;DHT22;6121;49.810;6.418;2022-12-29T09:35:43;11.40;99.90
12115;DHT22;6121;49.810;6.418;2022-12-29T09:38:09;11.40;99.90
12115;DHT22;6121;49.810;6.418;2022-12-29T09:40:35;11.60;99.90
12115;DHT22;6121;49.810;6.418;2022-12-29T09:45:44;11.60;99.90
12115;DHT22;6121;49.810;6.418;2022-12-29T09:48:16;11.60;99.90
12115;DHT22;6121;49.810;6.418;2022-12-29T09:51:08;11.40;99.90
12115;DHT22;6121;49.810;6.418;2022-12-29T09:53:38;11.30;99.90
12115;DHT22;6121;49.810;6.418;2022-12-29T09:56:13;11.30;99.90
12115;DHT22;6121;49.810;6.418;2022-12-29T09:58:45;11.40;99.90
12115;DHT22;6121;49.810;6.418;2022-12-29T10:03:57;11.40;99.90
12115;DHT22;6121;49.810;6.418;2022-12-29T10:07:45;11.30;99.90
12115;DHT22;6121;49.810;6.418;2022-12-29T10:09:46;11.50;99.90
12115;DHT22;6121;49.810;6.418;2022-12-29T10:14:55;11.40;99.90
12115;DHT22;6121;49.810;6.418;2022-12-29T10:17:46;11.50;99.90
12115;DHT22;6121;49.810;6.418;2022-12-29T10:20:37;11.70;99.90
12115;DHT22;6121;49.810;6.418;2022-12-29T10:25:42;11.60;99.90
12115;DHT22;6121;49.810;6.418;2022-12-29T10:28:34;11.50;99.90
12115;DHT22;6121;49.810;6.418;2022-12-29T10:31:02;11.60;99.90
12115;DHT22;6121;49.810;6.418;2022-12-29T10:33:37;11.50;99.90
12115;DHT22;6121;49.810;6.418;2022-12-29T10:39:14;11.60;99.90
12115;DHT22;6121;49.810;6.418;2022-12-29T10:41:54;11.70;99.90
12115;DHT22;6121;49.810;6.418;2022-12-29T10:44:21;11.60;99.90
12115;DHT22;6121;49.810;6.418;2022-12-29T10:46:57;11.60;99.90
12115;DHT22;6121;49.810;6.418;2022-12-29T10:49:27;11.50;99.90
12115;DHT22;6121;49.810;6.418;2022-12-29T10:51:58;11.70;99.90
12115;DHT22;6121;49.810;6.418;2022-12-29T10:54:46;11.70;99.90
12115;DHT22;6121;49.810;6.418;2022-12-29T10:57:41;11.50;99.90
12115;DHT22;6121;49.810;6.418;2022-12-29T11:00:21;11.40;99.90
12115;DHT22;6121;49.810;6.418;2022-12-29T11:05:34;11.40;99.90
12115;DHT22;6121;49.810;6.418;2022-12-29T11:08:04;11.40;99.90
12115;DHT22;6121;49.810;6.418;2022-12-29T11:13:04;11.50;99.90
12115;DHT22;6121;49.810;6.418;2022-12-29T11:15:46;11.60;99.90
12115;DHT22;6121;49.810;6.418;2022-12-29T11:18:19;11.40;99.90
12115;DHT22;6121;49.810;6.418;2022-12-29T11:20:46;11.30;99.90
12115;DHT22;6121;49.810;6.418;2022-12-29T11:23:38;11.40;99.90
12115;DHT22;6121;49.810;6.418;2022-12-29T11:26:15;11.60;99.90
12115;DHT22;6121;49.810;6.418;2022-12-29T11:28:45;11.60;99.90
12115;DHT22;6121;49.810;6.418;2022-12-29T11:31:16;11.50;99.90
12115;DHT22;6121;49.810;6.418;2022-12-29T11:33:41;11.40;99.90
12115;DHT22;6121;49.810;6.418;2022-12-29T11:36:15;11.70;99.90
12115;DHT22;6121;49.810;6.418;2022-12-29T11:39:02;11.80;99.90
12115;DHT22;6121;49.810;6.418;2022-12-29T11:41:29;11.90;99.90
12115;DHT22;6121;49.810;6.418;2022-12-29T11:44:02;12.00;99.90
12115;DHT22;6121;49.810;6.418;2022-12-29T11:46:35;12.10;99.90
12115;DHT22;6121;49.810;6.418;2022-12-29T11:49:03;12.00;99.90
12115;DHT22;6121;49.810;6.418;2022-12-29T11:51:45;11.90;99.90
12115;DHT22;6121;49.810;6.418;2022-12-29T11:54:22;11.80;99.90
12115;DHT22;6121;49.810;6.418;2022-12-29T11:56:50;12.10;99.90
12115;DHT22;6121;49.810;6.418;2022-12-29T12:04:45;12.10;99.90
12115;DHT22;6121;49.810;6.418;2022-12-29T12:07:15;12.10;99.90
12115;DHT22;6121;49.810;6.418;2022-12-29T12:09:54;12.00;99.90
12115;DHT22;6121;49.810;6.418;2022-12-29T12:12:29;12.00;99.90
12115;DHT22;6121;49.810;6.418;2022-12-29T12:14:58;12.10;99.90
12115;DHT22;6121;49.810;6.418;2022-12-29T12:23:06;12.40;99.90
12115;DHT22;6121;49.810;6.418;2022-12-29T12:25:57;12.30;99.90
12115;DHT22;6121;49.810;6.418;2022-12-29T12:28:34;12.40;99.90
12115;DHT22;6121;49.810;6.418;2022-12-29T12:31:02;12.50;99.90
12115;DHT22;6121;49.810;6.418;2022-12-29T12:33:35;12.80;99.90
12115;DHT22;6121;49.810;6.418;2022-12-29T12:45:25;12.70;99.90
12115;DHT22;6121;49.810;6.418;2022-12-29T12:48:20;12.70;99.90
12115;DHT22;6121;49.810;6.418;2022-12-29T12:53:53;12.50;99.90
12115;DHT22;6121;49.810;6.418;2022-12-29T12:59:40;12.20;99.90
12115;DHT22;6121;49.810;6.418;2022-12-29T13:02:24;12.10;99.90
12115;DHT22;6121;49.810;6.418;2022-12-29T13:07:49;12.20;99.90
12115;DHT22;6121;49.810;6.418;2022-12-29T13:21:34;11.70;99.90
12115;DHT22;6121;49.810;6.418;2022-12-29T13:24:13;11.70;99.90
12115;DHT22;6121;49.810;6.418;2022-12-29T13:26:50;11.80;99.90
12115;DHT22;6121;49.810;6.418;2022-12-29T13:29:17;11.90;99.90
12115;DHT22;6121;49.810;6.418;2022-12-29T13:37:13;12.00;99.90
12115;DHT22;6121;49.810;6.418;2022-12-29T13:39:49;12.00;99.90
12115;DHT22;6121;49.810;6.418;2022-12-29T13:42:18;12.10;99.90
12115;DHT22;6121;49.810;6.418;2022-12-29T13:44:48;12.00;99.90
12115;DHT22;6121;49.810;6.418;2022-12-29T13:47:36;11.90;99.90
12115;DHT22;6121;49.810;6.418;2022-12-29T13:50:08;11.80;99.90
12115;DHT22;6121;49.810;6.418;2022-12-29T13:55:32;11.90;99.90
12115;DHT22;6121;49.810;6.418;2022-12-29T14:01:00;11.70;99.90
12115;DHT22;6121;49.810;6.418;2022-12-29T14:06:27;11.80;99.90
12115;DHT22;6121;49.810;6.418;2022-12-29T14:08:56;11.70;99.90
12115;DHT22;6121;49.810;6.418;2022-12-29T14:11:29;11.50;99.90
12115;DHT22;6121;49.810;6.418;2022-12-29T14:13:56;11.50;99.90
12115;DHT22;6121;49.810;6.418;2022-12-29T14:18:55;11.50;99.90
12115;DHT22;6121;49.810;6.418;2022-12-29T14:21:25;11.60;99.90
12115;DHT22;6121;49.810;6.418;2022-12-29T14:24:26;11.50;99.90
12115;DHT22;6121;49.810;6.418;2022-12-29T14:26:52;11.60;99.90
12115;DHT22;6121;49.810;6.418;2022-12-29T14:34:55;11.40;99.90
12115;DHT22;6121;49.810;6.418;2022-12-29T14:37:25;11.30;99.90
12115;DHT22;6121;49.810;6.418;2022-12-29T14:42:35;11.20;99.90
12115;DHT22;6121;49.810;6.418;2022-12-29T14:45:08;11.20;99.90
12115;DHT22;6121;49.810;6.418;2022-12-29T14:47:50;11.20;99.90
12115;DHT22;6121;49.810;6.418;2022-12-29T14:50:41;11.20;99.90
12115;DHT22;6121;49.810;6.418;2022-12-29T14:54:00;11.00;99.90
12115;DHT22;6121;49.810;6.418;2022-12-29T14:56:24;11.10;99.90
12115;DHT22;6121;49.810;6.418;2022-12-29T14:59:10;11.10;99.90
12115;DHT22;6121;49.810;6.418;2022-12-29T15:01:47;10.90;99.90
12115;DHT22;6121;49.810;6.418;2022-12-29T15:04:27;11.10;99.90
12115;DHT22;6121;49.810;6.418;2022-12-29T15:06:55;11.00;99.90
12115;DHT22;6121;49.810;6.418;2022-12-29T15:09:28;10.90;99.90
12115;DHT22;6121;49.810;6.418;2022-12-29T15:12:04;10.90;99.90
12115;DHT22;6121;49.810;6.418;2022-12-29T15:16:59;10.80;99.90
12115;DHT22;6121;49.810;6.418;2022-12-29T15:19:26;10.60;99.90
12115;DHT22;6121;49.810;6.418;2022-12-29T15:21:54;10.50;99.90
12115;DHT22;6121;49.810;6.418;2022-12-29T15:24:20;10.50;99.90
12115;DHT22;6121;49.810;6.418;2022-12-29T15:26:48;10.50;99.90
12115;DHT22;6121;49.810;6.418;2022-12-29T15:29:40;10.40;99.90
12115;DHT22;6121;49.810;6.418;2022-12-29T15:34:42;10.40;99.90
12115;DHT22;6121;49.810;6.418;2022-12-29T15:37:08;10.30;99.90
12115;DHT22;6121;49.810;6.418;2022-12-29T15:39:34;10.30;99.90
12115;DHT22;6121;49.810;6.418;2022-12-29T15:44:51;10.40;99.90
12115;DHT22;6121;49.810;6.418;2022-12-29T15:47:19;10.10;99.90
12115;DHT22;6121;49.810;6.418;2022-12-29T15:49:50;10.00;99.90
12115;DHT22;6121;49.810;6.418;2022-12-29T15:52:19;10.10;99.90
12115;DHT22;6121;49.810;6.418;2022-12-29T15:54:48;9.90;99.90
12115;DHT22;6121;49.810;6.418;2022-12-29T15:57:29;9.90;99.90
12115;DHT22;6121;49.810;6.418;2022-12-29T15:59:55;9.80;99.90
12115;DHT22;6121;49.810;6.418;2022-12-29T16:02:22;9.70;99.90
12115;DHT22;6121;49.810;6.418;2022-12-29T16:04:49;9.80;99.90
12115;DHT22;6121;49.810;6.418;2022-12-29T16:07:30;9.70;99.90
12115;DHT22;6121;49.810;6.418;2022-12-29T16:10:00;9.80;99.90
12115;DHT22;6121;49.810;6.418;2022-12-29T16:12:32;9.80;99.90
12115;DHT22;6121;49.810;6.418;2022-12-29T16:15:03;9.70;99.90
12115;DHT22;6121;49.810;6.418;2022-12-29T16:17:33;9.80;99.90
12115;DHT22;6121;49.810;6.418;2022-12-29T16:20:02;10.00;99.90
12115;DHT22;6121;49.810;6.418;2022-12-29T16:22:38;10.10;99.90
12115;DHT22;6121;49.810;6.418;2022-12-29T16:27:41;10.10;99.90
12115;DHT22;6121;49.810;6.418;2022-12-29T16:30:20;10.10;99.90
12115;DHT22;6121;49.810;6.418;2022-12-29T16:32:52;10.10;99.90
12115;DHT22;6121;49.810;6.418;2022-12-29T16:35:27;10.10;99.90
12115;DHT22;6121;49.810;6.418;2022-12-29T16:38:13;10.00;99.90
12115;DHT22;6121;49.810;6.418;2022-12-29T16:41:01;10.00;99.90
12115;DHT22;6121;49.810;6.418;2022-12-29T16:43:34;9.80;99.90
12115;DHT22;6121;49.810;6.418;2022-12-29T16:46:24;9.80;99.90
12115;DHT22;6121;49.810;6.418;2022-12-29T16:48:54;9.60;99.90
12115;DHT22;6121;49.810;6.418;2022-12-29T16:51:30;9.50;99.90
12115;DHT22;6121;49.810;6.418;2022-12-29T16:53:56;9.50;99.90
12115;DHT22;6121;49.810;6.418;2022-12-29T16:56:25;9.30;99.90
12115;DHT22;6121;49.810;6.418;2022-12-29T17:01:45;9.30;99.90
12115;DHT22;6121;49.810;6.418;2022-12-29T17:04:12;9.40;99.90
12115;DHT22;6121;49.810;6.418;2022-12-29T17:06:38;9.50;99.90
12115;DHT22;6121;49.810;6.418;2022-12-29T17:09:22;9.40;99.90
12115;DHT22;6121;49.810;6.418;2022-12-29T17:11:50;9.40;99.90
12115;DHT22;6121;49.810;6.418;2022-12-29T17:19:49;8.90;99.90
12115;DHT22;6121;49.810;6.418;2022-12-29T17:22:24;8.90;99.90
12115;DHT22;6121;49.810;6.418;2022-12-29T17:24:51;8.80;99.90
12115;DHT22;6121;49.810;6.418;2022-12-29T17:27:36;8.50;99.90
12115;DHT22;6121;49.810;6.418;2022-12-29T17:30:09;8.60;99.90
12115;DHT22;6121;49.810;6.418;2022-12-29T17:32:36;8.60;99.90
12115;DHT22;6121;49.810;6.418;2022-12-29T17:35:02;8.20;99.90
12115;DHT22;6121;49.810;6.418;2022-12-29T17:37:36;8.00;99.90
12115;DHT22;6121;49.810;6.418;2022-12-29T17:40:04;7.80;99.90
12115;DHT22;6121;49.810;6.418;2022-12-29T17:42:31;7.90;99.90
12115;DHT22;6121;49.810;6.418;2022-12-29T17:45:00;7.90;99.90
12115;DHT22;6121;49.810;6.418;2022-12-29T17:47:27;7.90;99.90
12115;DHT22;6121;49.810;6.418;2022-12-29T17:49:52;7.60;99.90
12115;DHT22;6121;49.810;6.418;2022-12-29T17:52:18;7.50;99.90
12115;DHT22;6121;49.810;6.418;2022-12-29T17:54:50;7.70;99.90
12115;DHT22;6121;49.810;6.418;2022-12-29T17:57:17;7.70;99.90
12115;DHT22;6121;49.810;6.418;2022-12-29T17:59:43;7.80;99.90
12115;DHT22;6121;49.810;6.418;2022-12-29T18:02:30;7.90;99.90
12115;DHT22;6121;49.810;6.418;2022-12-29T18:04:57;8.00;99.90
12115;DHT22;6121;49.810;6.418;2022-12-29T18:07:25;7.60;99.90
12115;DHT22;6121;49.810;6.418;2022-12-29T18:09:52;7.70;99.90
12115;DHT22;6121;49.810;6.418;2022-12-29T18:12:34;7.90;99.90
12115;DHT22;6121;49.810;6.418;2022-12-29T18:15:02;7.80;99.90
12115;DHT22;6121;49.810;6.418;2022-12-29T18:17:28;7.70;99.90
12115;DHT22;6121;49.810;6.418;2022-12-29T18:19:53;7.50;99.90